Time;durP1;ratioP1;P1;durP2;ratioP2;P2;SDS_P1;SDS_P2;PMS_P1;PMS_P2;Temp;Humidity;BMP_temperature;BMP_pressure;BME280_temperature;BME280_humidity;BME280_pressure;Samples;Min_cycle;Max_cycle;Signal;HPM_P1;HPM_P2
2023/09/02 00:00:14;;;;;;;2.28;1.88;;;22.00;65.40;;;;;;5016633;28;20207;-83
2023/09/02 00:02:43;;;;;;;2.40;1.95;;;22.10;65.50;;;;;;5018026;28;20196;-81
2023/09/02 00:05:11;;;;;;;2.15;1.80;;;22.00;65.50;;;;;;5020081;28;20207;-82
2023/09/02 00:07:38;;;;;;;2.58;1.90;;;22.00;65.50;;;;;;5020825;28;20200;-82
2023/09/02 00:10:05;;;;;;;2.17;1.95;;;22.00;65.50;;;;;;5019885;28;20287;-82
2023/09/02 00:12:33;;;;;;;2.42;2.20;;;22.00;65.60;;;;;;5019528;28;20251;-82
2023/09/02 00:15:00;;;;;;;1.90;1.70;;;22.00;65.60;;;;;;5019507;28;20651;-82
2023/09/02 00:17:27;;;;;;;2.20;2.00;;;21.90;65.50;;;;;;5019469;28;20193;-82
2023/09/02 00:19:56;;;;;;;2.40;2.08;;;22.00;65.60;;;;;;5019357;28;20216;-82
2023/09/02 00:22:23;;;;;;;2.85;1.85;;;22.00;65.60;;;;;;5019210;28;20240;-82
2023/09/02 00:24:50;;;;;;;2.05;1.80;;;22.00;65.60;;;;;;5019888;28;20223;-82
2023/09/02 00:27:18;;;;;;;2.20;2.00;;;22.00;65.60;;;;;;5019169;28;20258;-82
2023/09/02 00:29:45;;;;;;;1.77;1.67;;;22.00;65.60;;;;;;5019277;28;20701;-82
2023/09/02 00:32:12;;;;;;;1.95;1.80;;;21.90;65.50;;;;;;5018898;28;20224;-82
2023/09/02 00:34:40;;;;;;;2.45;2.03;;;21.90;65.50;;;;;;5019096;28;20207;-82
2023/09/02 00:37:09;;;;;;;1.85;1.70;;;21.90;65.50;;;;;;5003273;28;20207;-82
2023/09/02 00:39:35;;;;;;;2.50;1.92;;;21.90;65.50;;;;;;5019184;28;20220;-82
2023/09/02 00:42:02;;;;;;;2.55;1.70;;;21.90;65.50;;;;;;5019351;28;20219;-82
2023/09/02 00:44:29;;;;;;;2.20;1.98;;;21.90;65.50;;;;;;5018998;28;20208;-82
2023/09/02 00:46:58;;;;;;;2.50;2.00;;;21.90;65.60;;;;;;5019400;28;20232;-82
2023/09/02 00:49:25;;;;;;;1.92;1.75;;;21.90;65.60;;;;;;5019628;28;20202;-82
2023/09/02 00:51:52;;;;;;;2.53;2.03;;;21.90;65.60;;;;;;5019733;28;20285;-82
2023/09/02 00:54:21;;;;;;;2.05;1.85;;;21.90;65.60;;;;;;5019694;28;20204;-82
2023/09/02 00:56:48;;;;;;;2.35;1.90;;;21.80;65.50;;;;;;5019804;28;20245;-82
2023/09/02 00:59:16;;;;;;;2.20;1.90;;;21.90;65.70;;;;;;5019508;28;20231;-82
2023/09/02 01:01:45;;;;;;;2.45;1.92;;;21.80;65.50;;;;;;5020052;28;20250;-82
2023/09/02 01:04:12;;;;;;;1.92;1.83;;;21.80;65.60;;;;;;5020201;28;20252;-82
2023/09/02 01:06:39;;;;;;;2.13;1.92;;;21.80;65.50;;;;;;5020973;28;20207;-81
2023/09/02 01:09:06;;;;;;;1.70;1.60;;;21.80;65.60;;;;;;5020092;28;20202;-82
2023/09/02 01:11:35;;;;;;;2.20;2.00;;;21.80;65.60;;;;;;5020109;28;20274;-82
2023/09/02 01:14:02;;;;;;;1.98;1.80;;;21.80;65.60;;;;;;5003789;28;20204;-82
2023/09/02 01:16:29;;;;;;;2.47;2.13;;;21.80;65.60;;;;;;5020105;28;20202;-82
2023/09/02 01:18:56;;;;;;;2.35;1.92;;;21.70;65.50;;;;;;5019172;28;20224;-82
2023/09/02 01:21:46;;;;;;;2.20;1.60;;;21.80;65.60;;;;;;5019249;28;20219;-82
2023/09/02 01:24:32;;;;;;;3.15;1.80;;;21.70;65.50;;;;;;5018971;28;20197;-82
2023/09/02 01:27:08;;;;;;;2.47;2.00;;;21.70;65.50;;;;;;4978692;28;20196;-82
2023/09/02 01:29:36;;;;;;;1.83;1.73;;;21.80;65.60;;;;;;5019312;28;20582;-82
2023/09/02 01:32:06;;;;;;;1.70;1.60;;;21.70;65.50;;;;;;5018951;28;20216;-82
2023/09/02 01:34:34;;;;;;;2.20;1.88;;;21.80;65.60;;;;;;5018602;28;20278;-82
2023/09/02 01:37:01;;;;;;;1.75;1.65;;;21.70;65.50;;;;;;5018917;28;20222;-82
2023/09/02 01:39:30;;;;;;;3.13;1.85;;;21.70;65.50;;;;;;5018896;28;20212;-82
2023/09/02 01:41:57;;;;;;;1.70;1.60;;;21.70;65.50;;;;;;5018454;28;20231;-82
2023/09/02 01:44:26;;;;;;;2.38;1.80;;;21.70;65.50;;;;;;5018469;28;20204;-82
2023/09/02 01:46:53;;;;;;;2.33;1.83;;;21.70;65.60;;;;;;5018881;28;20203;-82
2023/09/02 01:49:20;;;;;;;2.20;1.95;;;21.70;65.60;;;;;;5018287;28;20184;-82
2023/09/02 01:51:47;;;;;;;2.10;1.90;;;21.70;65.60;;;;;;5018552;28;20652;-82
2023/09/02 01:54:14;;;;;;;1.85;1.73;;;21.70;65.60;;;;;;5019651;28;20211;-82
2023/09/02 01:56:42;;;;;;;1.80;1.70;;;21.70;65.60;;;;;;5019307;28;20199;-82
2023/09/02 01:59:09;;;;;;;1.80;1.70;;;21.60;65.50;;;;;;5019431;28;20298;-82
2023/09/02 02:01:38;;;;;;;2.00;1.83;;;21.60;65.50;;;;;;5023693;28;20208;-82
2023/09/02 02:04:07;;;;;;;1.98;1.88;;;21.70;65.60;;;;;;5041270;28;20252;-82
2023/09/02 02:06:34;;;;;;;3.05;1.95;;;21.70;65.60;;;;;;5035775;28;20211;-81
2023/09/02 02:09:03;;;;;;;1.80;1.70;;;21.60;65.50;;;;;;5018181;28;20184;-82
2023/09/02 02:11:31;;;;;;;1.60;1.50;;;21.60;65.50;;;;;;5019959;28;20218;-82
2023/09/02 02:14:01;;;;;;;2.88;1.95;;;21.60;65.50;;;;;;5023418;28;20251;-82
2023/09/02 02:16:29;;;;;;;3.33;1.80;;;21.60;65.50;;;;;;5005831;28;20298;-82
2023/09/02 02:18:57;;;;;;;1.90;1.60;;;21.50;65.30;;;;;;5020351;28;20230;-82
2023/09/02 02:21:25;;;;;;;2.05;1.80;;;21.60;65.40;;;;;;5017489;28;20211;-82
2023/09/02 02:23:51;;;;;;;2.08;1.80;;;21.60;65.40;;;;;;5002412;28;20203;-82
2023/09/02 02:26:18;;;;;;;2.15;1.70;;;21.70;65.40;;;;;;5016826;28;20207;-82
2023/09/02 02:28:45;;;;;;;2.08;1.88;;;21.70;65.40;;;;;;5020252;28;20196;-82
2023/09/02 02:31:12;;;;;;;1.85;1.73;;;21.70;65.40;;;;;;5020257;28;20250;-83
2023/09/02 02:33:39;;;;;;;2.30;1.70;;;21.60;65.30;;;;;;5019896;28;20250;-82
2023/09/02 02:36:09;;;;;;;2.15;1.85;;;21.70;65.30;;;;;;5020935;28;20207;-82
2023/09/02 02:38:36;;;;;;;2.70;2.13;;;21.50;65.10;;;;;;5027998;28;20200;-83
2023/09/02 02:41:03;;;;;;;2.08;1.70;;;21.60;65.20;;;;;;5038296;28;20212;-83
2023/09/02 02:43:30;;;;;;;2.08;1.88;;;21.60;65.20;;;;;;5037892;28;20192;-83
2023/09/02 02:45:57;;;;;;;1.73;1.63;;;21.60;65.20;;;;;;5023309;28;20208;-83
2023/09/02 02:48:27;;;;;;;2.00;1.77;;;21.60;65.30;;;;;;5023230;28;20204;-83
2023/09/02 02:50:54;;;;;;;2.30;1.77;;;21.60;65.30;;;;;;5022970;28;20242;-83
2023/09/02 02:53:23;;;;;;;2.10;1.90;;;21.50;65.20;;;;;;5022791;28;20227;-83
2023/09/02 02:55:50;;;;;;;1.95;1.83;;;21.50;65.20;;;;;;5022218;28;20275;-83
2023/09/02 02:58:18;;;;;;;2.25;1.73;;;21.60;65.30;;;;;;5022844;28;20204;-83
2023/09/02 03:00:46;;;;;;;1.70;1.60;;;21.50;65.20;;;;;;4989839;28;20220;-83
2023/09/02 03:03:16;;;;;;;2.13;1.92;;;21.50;65.30;;;;;;5021509;28;20267;-83
2023/09/02 03:05:43;;;;;;;1.90;1.80;;;21.50;65.20;;;;;;5022553;28;20196;-83
2023/09/02 03:08:11;;;;;;;2.20;2.00;;;21.50;65.20;;;;;;5023078;28;20199;-83
2023/09/02 03:10:39;;;;;;;2.28;1.90;;;21.60;65.10;;;;;;5006299;28;20226;-83
2023/09/02 03:13:06;;;;;;;2.10;1.92;;;21.60;65.00;;;;;;5022274;28;20192;-83
2023/09/02 03:15:35;;;;;;;1.67;1.58;;;21.50;64.90;;;;;;5022322;28;20192;-83
2023/09/02 03:18:03;;;;;;;1.95;1.83;;;21.50;64.90;;;;;;5022716;28;20195;-83
2023/09/02 03:20:33;;;;;;;2.33;1.77;;;21.60;65.00;;;;;;5022356;28;20230;-83
2023/09/02 03:23:04;;;;;;;2.17;1.98;;;21.50;64.70;;;;;;5022782;28;20200;-83
2023/09/02 03:25:32;;;;;;;2.38;1.70;;;21.60;64.70;;;;;;5021767;28;20200;-83
2023/09/02 03:28:01;;;;;;;5.97;3.35;;;21.70;64.70;;;;;;5021055;28;20199;-83
2023/09/02 03:30:28;;;;;;;2.65;1.77;;;21.60;64.40;;;;;;5020289;28;20208;-83
2023/09/02 03:32:56;;;;;;;3.53;1.80;;;21.70;64.30;;;;;;5019886;28;20597;-83
2023/09/02 03:35:23;;;;;;;2.03;1.88;;;21.80;64.10;;;;;;5020276;28;20208;-83
2023/09/02 03:37:51;;;;;;;2.58;1.80;;;21.70;63.90;;;;;;5002177;28;20279;-83
2023/09/02 03:40:18;;;;;;;2.00;1.80;;;21.80;63.80;;;;;;5020110;28;20230;-83
2023/09/02 03:42:45;;;;;;;1.70;1.60;;;21.80;63.80;;;;;;5020453;28;20204;-83
2023/09/02 03:45:14;;;;;;;1.73;1.63;;;21.80;63.70;;;;;;5023154;28;20196;-82
2023/09/02 03:47:42;;;;;;;1.88;1.70;;;21.80;64.40;;;;;;5023509;28;20227;-83
2023/09/02 03:50:11;;;;;;;1.92;1.77;;;21.90;63.70;;;;;;5004309;28;20192;-83
2023/09/02 03:52:39;;;;;;;2.83;1.73;;;21.80;63.50;;;;;;5020284;28;20294;-83
2023/09/02 03:55:06;;;;;;;2.28;1.77;;;21.80;63.50;;;;;;5019997;28;20214;-82
2023/09/02 03:57:34;;;;;;;1.92;1.73;;;21.90;63.40;;;;;;5020941;28;20191;-83
2023/09/02 04:00:02;;;;;;;1.98;1.77;;;21.90;63.40;;;;;;5020364;28;20219;-82
2023/09/02 04:02:31;;;;;;;2.33;1.80;;;21.90;63.40;;;;;;5037191;28;20218;-83
2023/09/02 04:04:58;;;;;;;2.15;1.95;;;21.90;63.30;;;;;;5020384;28;20200;-82
2023/09/02 04:07:25;;;;;;;2.25;1.67;;;21.90;63.30;;;;;;5019476;28;20230;-82
2023/09/02 04:09:54;;;;;;;1.88;1.50;;;21.90;63.30;;;;;;5022842;28;20184;-82
2023/09/02 04:12:22;;;;;;;2.70;1.55;;;21.90;63.40;;;;;;5024873;28;20219;-82
2023/09/02 04:14:50;;;;;;;2.47;1.77;;;21.90;63.40;;;;;;5023702;28;20624;-82
2023/09/02 04:17:17;;;;;;;1.80;1.70;;;21.80;62.90;;;;;;5040171;28;20246;-81
2023/09/02 04:19:46;;;;;;;2.00;1.80;;;21.90;61.60;;;;;;5022891;28;20235;-82
2023/09/02 04:22:15;;;;;;;2.38;2.00;;;21.80;60.80;;;;;;5022519;28;20239;-81
2023/09/02 04:24:43;;;;;;;3.00;2.08;;;21.90;60.50;;;;;;5021750;28;20571;-82
2023/09/02 04:27:10;;;;;;;2.00;1.90;;;21.80;59.90;;;;;;5021824;28;20713;-82
2023/09/02 04:29:38;;;;;;;2.95;1.77;;;21.80;59.30;;;;;;5019723;28;20202;-82
2023/09/02 04:32:06;;;;;;;1.90;1.80;;;21.70;58.90;;;;;;5017874;28;20285;-82
2023/09/02 04:34:33;;;;;;;4.25;2.00;;;21.60;58.70;;;;;;5008641;28;20200;-81
2023/09/02 04:37:02;;;;;;;4.70;2.20;;;21.60;58.50;;;;;;5010882;28;20200;-82
2023/09/02 04:39:29;;;;;;;3.60;1.92;;;21.50;58.40;;;;;;5005578;28;20193;-82
2023/09/02 04:41:56;;;;;;;5.50;1.95;;;21.50;58.30;;;;;;4983508;28;20703;-81
2023/09/02 04:44:23;;;;;;;2.35;2.08;;;21.50;58.20;;;;;;4999746;28;20192;-81
2023/09/02 04:46:50;;;;;;;2.83;1.70;;;21.40;58.10;;;;;;4999495;28;20207;-81
2023/09/02 04:49:17;;;;;;;5.10;2.30;;;21.40;58.00;;;;;;4999262;28;20244;-81
2023/09/02 04:51:45;;;;;;;3.25;1.88;;;21.30;58.00;;;;;;4999697;28;20224;-82
2023/09/02 04:54:14;;;;;;;3.72;1.90;;;21.40;58.00;;;;;;5016340;23;20224;-80
2023/09/02 04:56:41;;;;;;;5.38;2.00;;;21.30;57.90;;;;;;5015543;28;20211;-81
2023/09/02 04:59:08;;;;;;;4.47;1.88;;;21.30;58.00;;;;;;5017860;28;20205;-80
2023/09/02 05:01:35;;;;;;;2.53;1.80;;;21.30;58.60;;;;;;5018042;28;20225;-80
2023/09/02 05:04:02;;;;;;;4.30;1.80;;;21.30;58.00;;;;;;5013356;28;20617;-80
2023/09/02 05:06:29;;;;;;;2.33;1.90;;;21.20;58.00;;;;;;5008603;28;20212;-81
2023/09/02 05:08:57;;;;;;;2.40;1.70;;;21.20;58.00;;;;;;5019425;28;20232;-81
2023/09/02 05:11:30;;;;;;;4.10;2.25;;;21.20;58.00;;;;;;5012383;28;20756;-80
2023/09/02 05:13:59;;;;;;;2.53;1.90;;;21.10;57.90;;;;;;5016108;28;20283;-80
2023/09/02 05:16:26;;;;;;;1.77;1.67;;;21.10;58.00;;;;;;5018334;28;20220;-80
2023/09/02 05:18:54;;;;;;;5.78;1.88;;;21.20;58.60;;;;;;4999565;28;20212;-78
2023/09/02 05:21:21;;;;;;;1.65;1.55;;;21.10;58.50;;;;;;5014394;28;20228;-79
2023/09/02 05:23:48;;;;;;;2.50;1.98;;;21.20;58.70;;;;;;5014435;28;20197;-79
2023/09/02 05:26:16;;;;;;;2.05;1.73;;;21.20;58.70;;;;;;5009716;28;20765;-79
2023/09/02 05:28:44;;;;;;;2.03;1.83;;;21.20;58.90;;;;;;5002570;28;20207;-79
2023/09/02 05:31:12;;;;;;;2.25;1.70;;;21.20;59.00;;;;;;5015737;28;20213;-78
2023/09/02 05:33:39;;;;;;;1.90;1.80;;;21.20;59.00;;;;;;5014257;28;20200;-79
2023/09/02 05:36:06;;;;;;;2.10;1.90;;;21.20;59.10;;;;;;5014227;28;20247;-79
2023/09/02 05:38:34;;;;;;;2.85;1.70;;;21.30;59.20;;;;;;5014310;28;20201;-79
2023/09/02 05:41:01;;;;;;;2.90;1.80;;;21.30;59.10;;;;;;5014722;28;20235;-81
2023/09/02 05:43:29;;;;;;;2.80;1.75;;;21.30;59.10;;;;;;4998509;28;20663;-79
2023/09/02 05:46:01;;;;;;;2.88;1.75;;;21.40;59.10;;;;;;5014765;28;20207;-79
2023/09/02 05:48:28;;;;;;;1.83;1.70;;;21.50;58.90;;;;;;5013738;28;20247;-79
2023/09/02 05:50:57;;;;;;;3.92;1.77;;;21.70;58.70;;;;;;5013549;28;20311;-79
2023/09/02 05:53:24;;;;;;;1.60;1.50;;;21.70;58.50;;;;;;5014907;28;20558;-79
2023/09/02 05:55:54;;;;;;;1.98;1.70;;;21.80;58.40;;;;;;5012871;28;20615;-79
2023/09/02 05:58:21;;;;;;;2.40;1.85;;;21.90;58.40;;;;;;5013148;28;20224;-79
2023/09/02 06:00:49;;;;;;;2.33;1.83;;;21.90;58.40;;;;;;5012650;28;20695;-79
2023/09/02 06:03:17;;;;;;;2.67;1.80;;;21.90;58.30;;;;;;5014162;28;20204;-79
2023/09/02 06:05:44;;;;;;;1.70;1.55;;;22.00;58.30;;;;;;5013561;28;20205;-78
2023/09/02 06:08:11;;;;;;;2.25;1.75;;;22.10;58.20;;;;;;4998128;28;20201;-78
2023/09/02 06:10:38;;;;;;;2.20;1.70;;;22.20;57.90;;;;;;5013282;28;20275;-78
2023/09/02 06:13:06;;;;;;;2.75;1.77;;;22.30;57.60;;;;;;5013584;28;20207;-78
2023/09/02 06:15:32;;;;;;;1.80;1.70;;;22.50;57.30;;;;;;5014593;28;20235;-78
2023/09/02 06:18:01;;;;;;;1.70;1.60;;;22.60;57.00;;;;;;5013757;28;20193;-78
2023/09/02 06:20:29;;;;;;;3.40;1.63;;;22.70;56.70;;;;;;5013870;28;20232;-78
2023/09/02 06:22:56;;;;;;;2.55;1.67;;;22.80;56.80;;;;;;5013405;28;20193;-78
2023/09/02 06:25:24;;;;;;;2.08;1.40;;;22.80;56.70;;;;;;5013415;28;20228;-78
2023/09/02 06:27:51;;;;;;;1.50;1.40;;;22.80;56.70;;;;;;5014909;28;20223;-78
2023/09/02 06:30:18;;;;;;;1.50;1.40;;;23.00;56.60;;;;;;5013105;28;20185;-78
2023/09/02 06:32:45;;;;;;;2.28;1.77;;;23.10;56.30;;;;;;5013156;28;20212;-78
2023/09/02 06:35:15;;;;;;;1.98;1.88;;;23.20;56.30;;;;;;5013470;28;20287;-78
2023/09/02 06:37:44;;;;;;;1.80;1.70;;;23.40;56.00;;;;;;4998582;28;20251;-78
2023/09/02 06:40:11;;;;;;;1.70;1.60;;;23.50;55.60;;;;;;5013036;28;20220;-78
2023/09/02 06:42:38;;;;;;;2.28;1.70;;;23.60;55.40;;;;;;5012928;28;20275;-78
2023/09/02 06:45:06;;;;;;;2.30;1.70;;;23.80;55.10;;;;;;5012810;28;20207;-78
2023/09/02 06:47:33;;;;;;;1.63;1.52;;;23.80;54.70;;;;;;5013031;28;20196;-78
2023/09/02 06:50:00;;;;;;;1.60;1.50;;;24.00;54.60;;;;;;4996901;28;20197;-78
2023/09/02 06:52:27;;;;;;;2.10;1.60;;;24.10;54.30;;;;;;5013049;28;20216;-78
2023/09/02 06:54:56;;;;;;;2.33;1.65;;;24.20;54.10;;;;;;5013234;28;20200;-78
2023/09/02 06:57:23;;;;;;;1.80;1.70;;;24.30;54.00;;;;;;5013619;28;20203;-78
2023/09/02 06:59:49;;;;;;;1.95;1.70;;;24.40;53.70;;;;;;5013575;28;20249;-78
2023/09/02 07:02:16;;;;;;;1.63;1.52;;;24.50;53.70;;;;;;5025101;28;20220;-78
2023/09/02 07:04:43;;;;;;;2.10;1.90;;;24.50;53.50;;;;;;5038458;28;20200;-78
2023/09/02 07:07:10;;;;;;;1.75;1.65;;;24.60;54.00;;;;;;5037799;28;20195;-78
2023/09/02 07:09:37;;;;;;;2.10;1.90;;;24.70;53.30;;;;;;5034804;28;20260;-78
2023/09/02 07:12:06;;;;;;;1.80;1.50;;;24.80;53.10;;;;;;5021191;28;20295;-78
2023/09/02 07:14:33;;;;;;;1.80;1.58;;;24.80;53.00;;;;;;5017503;28;20546;-78
2023/09/02 07:17:00;;;;;;;1.65;1.55;;;24.90;53.50;;;;;;5016977;28;20259;-78
2023/09/02 07:19:27;;;;;;;1.70;1.60;;;25.00;52.80;;;;;;5018047;28;20192;-78
2023/09/02 07:21:57;;;;;;;1.70;1.58;;;25.00;52.60;;;;;;5016931;28;20225;-78
2023/09/02 07:24:23;;;;;;;1.80;1.70;;;25.10;52.50;;;;;;5017211;28;20184;-78
2023/09/02 07:26:51;;;;;;;2.13;1.65;;;25.10;52.40;;;;;;5018033;28;20238;-78
2023/09/02 07:29:19;;;;;;;1.70;1.55;;;25.20;52.30;;;;;;5018260;28;20224;-78
2023/09/02 07:31:46;;;;;;;1.70;1.60;;;25.20;52.20;;;;;;5017467;28;20224;-78
2023/09/02 07:34:14;;;;;;;1.70;1.60;;;25.30;52.10;;;;;;5017027;28;20229;-78
2023/09/02 07:36:42;;;;;;;1.58;1.48;;;25.40;52.00;;;;;;5016906;28;20192;-78
2023/09/02 07:39:09;;;;;;;1.52;1.42;;;25.40;52.40;;;;;;5016860;28;20271;-79
2023/09/02 07:41:36;;;;;;;1.75;1.30;;;25.50;51.80;;;;;;5016358;28;20244;-79
2023/09/02 07:44:03;;;;;;;1.83;1.55;;;25.50;51.70;;;;;;5016517;28;20196;-79
2023/09/02 07:46:31;;;;;;;1.70;1.60;;;25.60;51.60;;;;;;5016752;28;20647;-79
2023/09/02 07:48:58;;;;;;;1.70;1.60;;;25.60;51.50;;;;;;5016385;28;20278;-79
2023/09/02 07:51:25;;;;;;;1.77;1.67;;;25.60;51.40;;;;;;5016356;28;20243;-78
2023/09/02 07:53:52;;;;;;;1.90;1.60;;;25.70;51.50;;;;;;5016203;28;20640;-78
2023/09/02 07:56:19;;;;;;;1.60;1.50;;;25.70;51.30;;;;;;5016145;28;20361;-78
2023/09/02 07:58:48;;;;;;;1.92;1.70;;;25.70;51.30;;;;;;5016011;28;20244;-78
2023/09/02 08:01:15;;;;;;;1.60;1.50;;;25.70;51.30;;;;;;5016169;28;20585;-78
2023/09/02 08:03:44;;;;;;;1.65;1.55;;;25.70;51.20;;;;;;4999980;28;20220;-78
2023/09/02 08:06:11;;;;;;;1.70;1.60;;;25.80;51.20;;;;;;5015962;28;20586;-78
2023/09/02 08:08:39;;;;;;;2.58;1.60;;;25.70;51.20;;;;;;5015945;28;20199;-78
2023/09/02 08:11:06;;;;;;;1.52;1.42;;;25.70;51.30;;;;;;5017051;28;20204;-78
2023/09/02 08:13:33;;;;;;;1.65;1.55;;;25.70;51.30;;;;;;5016327;28;20196;-79
2023/09/02 08:16:04;;;;;;;1.70;1.60;;;25.70;51.30;;;;;;5016012;28;20689;-79
2023/09/02 08:18:31;;;;;;;1.90;1.50;;;25.70;51.30;;;;;;5015987;28;20200;-79
2023/09/02 08:20:59;;;;;;;2.03;1.50;;;25.80;51.20;;;;;;4999299;28;20251;-79
2023/09/02 08:23:26;;;;;;;1.73;1.50;;;25.70;51.10;;;;;;5015068;28;20196;-79
2023/09/02 08:25:54;;;;;;;1.55;1.45;;;25.80;51.10;;;;;;4999902;28;20200;-79
2023/09/02 08:28:21;;;;;;;1.40;1.30;;;25.80;51.10;;;;;;5017850;28;20283;-79
2023/09/02 08:30:48;;;;;;;1.52;1.42;;;25.70;51.20;;;;;;5015872;28;20216;-79
2023/09/02 08:33:15;;;;;;;1.45;1.35;;;25.80;51.30;;;;;;5016756;28;20242;-79
2023/09/02 08:35:42;;;;;;;1.70;1.60;;;25.80;51.20;;;;;;4999665;28;20207;-79
2023/09/02 08:38:10;;;;;;;2.38;1.60;;;25.80;51.20;;;;;;5016104;28;20195;-79
2023/09/02 08:40:38;;;;;;;1.50;1.40;;;25.80;51.10;;;;;;5015703;28;20216;-77
2023/09/02 08:43:05;;;;;;;1.65;1.55;;;25.90;51.10;;;;;;5014750;28;20204;-78
2023/09/02 08:45:32;;;;;;;1.50;1.40;;;25.90;51.00;;;;;;5016445;28;20207;-78
2023/09/02 08:48:00;;;;;;;1.60;1.50;;;25.90;51.00;;;;;;5015535;28;20279;-78
2023/09/02 08:50:28;;;;;;;1.67;1.58;;;26.00;51.00;;;;;;4999109;28;20219;-78
2023/09/02 08:52:55;;;;;;;1.80;1.70;;;26.00;50.80;;;;;;5016350;28;20226;-78
2023/09/02 08:55:24;;;;;;;1.50;1.40;;;26.00;50.60;;;;;;5015492;28;20212;-78
2023/09/02 08:57:51;;;;;;;1.70;1.60;;;26.10;50.50;;;;;;4999609;28;20634;-78
2023/09/02 09:00:19;;;;;;;1.50;1.40;;;26.10;50.40;;;;;;4999158;28;20196;-78
2023/09/02 09:02:46;;;;;;;1.55;1.40;;;26.20;50.40;;;;;;5015542;28;20216;-78
2023/09/02 09:05:13;;;;;;;1.85;1.75;;;26.30;50.30;;;;;;5015454;28;20202;-78
2023/09/02 09:07:39;;;;;;;1.58;1.48;;;26.30;50.10;;;;;;5016525;28;20184;-78
2023/09/02 09:10:08;;;;;;;1.52;1.42;;;26.40;50.00;;;;;;5015100;28;20199;-78
2023/09/02 09:12:37;;;;;;;1.63;1.50;;;26.40;49.90;;;;;;4998735;28;20230;-78
2023/09/02 09:15:04;;;;;;;1.60;1.50;;;26.50;49.80;;;;;;5014756;28;20184;-78
2023/09/02 09:17:31;;;;;;;1.60;1.50;;;26.50;49.80;;;;;;5014685;28;20547;-78
2023/09/02 09:19:59;;;;;;;1.83;1.60;;;26.50;49.60;;;;;;5014751;28;20611;-78
2023/09/02 09:22:26;;;;;;;1.83;1.40;;;26.60;49.70;;;;;;5014657;28;20231;-78
2023/09/02 09:24:54;;;;;;;1.55;1.45;;;26.60;49.70;;;;;;5015014;28;20684;-78
2023/09/02 09:27:21;;;;;;;1.40;1.30;;;26.60;49.60;;;;;;5015246;28;20271;-78
2023/09/02 09:29:49;;;;;;;1.73;1.50;;;26.60;49.50;;;;;;5014713;28;20254;-78
2023/09/02 09:32:18;;;;;;;2.25;1.40;;;26.60;49.50;;;;;;5014465;28;20222;-78
2023/09/02 09:34:45;;;;;;;1.58;1.48;;;26.60;49.50;;;;;;5014354;28;20232;-78
2023/09/02 09:37:14;;;;;;;1.35;1.25;;;26.60;49.50;;;;;;5014899;28;20246;-78
2023/09/02 09:39:42;;;;;;;1.45;1.30;;;26.60;50.00;;;;;;5014862;28;20203;-78
2023/09/02 09:42:10;;;;;;;1.40;1.30;;;26.60;49.50;;;;;;5013801;28;20227;-78
2023/09/02 09:44:55;;;;;;;1.42;1.33;;;26.60;49.50;;;;;;5014353;28;20200;-78
2023/09/02 09:47:23;;;;;;;1.48;1.38;;;26.60;49.40;;;;;;5014947;28;20200;-78
2023/09/02 09:49:50;;;;;;;1.40;1.20;;;26.60;49.40;;;;;;5014706;28;20197;-78
2023/09/02 09:52:18;;;;;;;1.58;1.48;;;26.60;49.50;;;;;;4998815;28;20262;-78
2023/09/02 09:54:47;;;;;;;1.58;1.48;;;26.60;49.50;;;;;;5014085;28;20200;-78
2023/09/02 09:57:16;;;;;;;1.30;1.20;;;26.60;49.50;;;;;;5013805;28;20709;-78
2023/09/02 09:59:50;;;;;;;1.42;1.33;;;26.60;49.50;;;;;;5014112;28;20536;-78
2023/09/02 10:02:19;;;;;;;1.45;1.33;;;26.60;49.50;;;;;;5013722;28;20251;-78
2023/09/02 10:04:50;;;;;;;1.38;1.27;;;26.60;49.60;;;;;;5014159;28;20223;-77
2023/09/02 10:07:19;;;;;;;1.45;1.35;;;26.60;49.60;;;;;;5014454;28;20192;-77
2023/09/02 10:09:46;;;;;;;1.50;1.40;;;26.60;49.70;;;;;;4997690;28;20734;-77
2023/09/02 10:12:15;;;;;;;2.58;1.40;;;26.60;49.70;;;;;;5013431;28;20223;-77
2023/09/02 10:14:42;;;;;;;1.52;1.42;;;26.60;49.70;;;;;;5013848;28;20231;-77
2023/09/02 10:17:10;;;;;;;1.98;1.50;;;26.60;49.80;;;;;;5013661;28;20204;-78
2023/09/02 10:19:38;;;;;;;1.33;1.23;;;26.60;49.80;;;;;;5014183;28;20220;-78
2023/09/02 10:22:06;;;;;;;1.33;1.23;;;26.60;49.80;;;;;;5014172;28;20220;-78
2023/09/02 10:24:33;;;;;;;1.58;1.48;;;26.60;49.90;;;;;;5014213;28;20200;-78
2023/09/02 10:27:01;;;;;;;1.40;1.30;;;26.60;49.90;;;;;;5013840;28;20204;-78
2023/09/02 10:29:30;;;;;;;1.20;1.10;;;26.60;49.90;;;;;;5013569;28;20199;-78
2023/09/02 10:32:00;;;;;;;1.42;1.33;;;26.60;50.00;;;;;;5014516;28;20681;-78
2023/09/02 10:34:28;;;;;;;1.60;1.50;;;26.50;49.90;;;;;;5013611;28;20207;-78
2023/09/02 10:36:57;;;;;;;1.50;1.40;;;26.50;50.00;;;;;;5014388;28;20195;-78
2023/09/02 10:39:29;;;;;;;1.58;1.48;;;26.50;50.10;;;;;;5014462;28;20194;-78
2023/09/02 10:41:56;;;;;;;1.38;1.27;;;26.50;50.20;;;;;;4997295;28;20696;-78
2023/09/02 10:44:24;;;;;;;1.50;1.40;;;26.40;50.20;;;;;;5013225;28;20275;-78
2023/09/02 10:46:51;;;;;;;1.40;1.30;;;26.40;50.30;;;;;;5012700;28;20254;-78
2023/09/02 10:49:19;;;;;;;1.42;1.33;;;26.40;51.10;;;;;;5013460;28;20202;-78
2023/09/02 10:51:46;;;;;;;1.35;1.25;;;26.40;50.60;;;;;;5013402;28;20216;-78
2023/09/02 10:54:14;;;;;;;1.77;1.38;;;26.30;50.50;;;;;;5044835;23;20281;-82
2023/09/02 10:56:43;;;;;;;1.40;1.30;;;26.30;50.50;;;;;;5033286;28;20639;-82
2023/09/02 10:59:10;;;;;;;1.30;1.20;;;26.30;50.50;;;;;;5049968;28;20234;-82
2023/09/02 11:01:44;;;;;;;1.30;1.20;;;26.30;50.70;;;;;;5032567;28;20233;-82
2023/09/02 11:04:11;;;;;;;1.30;1.30;;;26.20;50.80;;;;;;5032585;28;20203;-82
2023/09/02 11:06:38;;;;;;;1.27;1.25;;;26.20;51.00;;;;;;5032531;28;20241;-82
2023/09/02 11:09:05;;;;;;;1.50;1.40;;;26.20;51.00;;;;;;5033600;28;20663;-82
2023/09/02 11:12:02;;;;;;;1.30;1.20;;;26.20;51.10;;;;;;5032565;28;20223;-82
2023/09/02 11:14:31;;;;;;;1.45;1.35;;;26.20;51.20;;;;;;5032364;28;20218;-82
2023/09/02 11:17:28;;;;;;;1.10;1.10;;;26.20;51.30;;;;;;5032537;28;20290;-82
2023/09/02 11:19:59;;;;;;;1.42;1.33;;;26.10;51.40;;;;;;5024803;28;20571;-82
2023/09/02 11:22:48;;;;;;;1.33;1.30;;;26.10;51.40;;;;;;5032646;28;20246;-82
2023/09/02 11:25:32;;;;;;;1.42;1.33;;;26.10;51.60;;;;;;5032459;28;20294;-82
2023/09/02 11:28:00;;;;;;;1.73;1.40;;;26.00;51.60;;;;;;5033430;28;20549;-82
2023/09/02 11:30:30;;;;;;;1.38;1.27;;;26.00;51.70;;;;;;5032385;28;20222;-82
2023/09/02 11:32:57;;;;;;;1.35;1.25;;;26.00;51.80;;;;;;5032670;28;20199;-82
2023/09/02 11:35:26;;;;;;;1.20;1.20;;;26.00;51.80;;;;;;5033013;28;20290;-82
2023/09/02 11:37:54;;;;;;;1.30;1.20;;;25.90;51.80;;;;;;5033312;28;20210;-82
2023/09/02 11:40:23;;;;;;;1.30;1.20;;;25.90;51.90;;;;;;5032752;28;20203;-82
2023/09/02 11:42:50;;;;;;;1.30;1.20;;;25.90;51.90;;;;;;5022675;28;20259;-83
2023/09/02 11:45:17;;;;;;;1.38;1.27;;;25.90;52.20;;;;;;5022862;28;20691;-83
2023/09/02 11:47:46;;;;;;;1.55;1.45;;;25.90;52.20;;;;;;5033859;28;20195;-83
2023/09/02 11:50:14;;;;;;;1.40;1.20;;;25.90;52.30;;;;;;5032411;28;20195;-83
2023/09/02 11:52:41;;;;;;;2.30;1.52;;;25.90;52.50;;;;;;5013205;28;20221;-82
2023/09/02 11:55:10;;;;;;;1.52;1.42;;;25.90;52.80;;;;;;5032298;28;20625;-82
2023/09/02 11:57:36;;;;;;;1.50;1.40;;;25.90;53.00;;;;;;5032365;28;20203;-82
2023/09/02 12:00:06;;;;;;;1.65;1.50;;;25.90;53.20;;;;;;5036208;28;20202;-82
2023/09/02 12:02:34;;;;;;;1.55;1.40;;;25.90;53.30;;;;;;5019945;28;20226;-83
2023/09/02 12:05:03;;;;;;;1.58;1.48;;;25.90;53.30;;;;;;5036821;28;20202;-81
2023/09/02 12:07:32;;;;;;;2.45;1.65;;;25.90;53.50;;;;;;5037317;28;20204;-81
2023/09/02 12:10:04;;;;;;;2.10;1.40;;;25.90;53.50;;;;;;5037490;28;20241;-81
2023/09/02 12:12:31;;;;;;;1.90;1.70;;;25.90;53.60;;;;;;5020940;28;20265;-81
2023/09/02 12:14:58;;;;;;;1.88;1.67;;;25.90;53.60;;;;;;5036397;28;20234;-81
2023/09/02 12:17:25;;;;;;;2.38;1.80;;;25.90;53.40;;;;;;5013426;28;20566;-80
2023/09/02 12:19:52;;;;;;;2.17;1.80;;;25.90;53.50;;;;;;5035458;28;20206;-81
2023/09/02 12:22:22;;;;;;;1.70;1.60;;;25.90;53.40;;;;;;5035381;28;20225;-81
2023/09/02 12:24:48;;;;;;;1.60;1.50;;;25.90;53.30;;;;;;5036117;28;20203;-81
2023/09/02 12:27:16;;;;;;;2.00;1.80;;;25.90;53.20;;;;;;5035769;28;20199;-81
2023/09/02 12:29:53;;;;;;;2.38;1.70;;;25.90;53.00;;;;;;5036014;28;20234;-81
2023/09/02 12:32:19;;;;;;;1.83;1.60;;;25.90;53.20;;;;;;5036694;28;20203;-80
2023/09/02 12:34:46;;;;;;;3.15;1.77;;;25.90;53.20;;;;;;5035608;28;20265;-81
2023/09/02 12:37:17;;;;;;;2.33;1.90;;;25.90;53.30;;;;;;5036341;28;20550;-81
2023/09/02 12:39:45;;;;;;;2.38;1.60;;;25.90;53.10;;;;;;5035726;28;20199;-81
2023/09/02 12:42:16;;;;;;;1.75;1.65;;;25.90;53.00;;;;;;5035768;28;20645;-81
2023/09/02 12:44:51;;;;;;;3.17;1.58;;;25.90;53.00;;;;;;5036983;28;20196;-83
2023/09/02 12:47:20;;;;;;;1.75;1.65;;;25.90;53.20;;;;;;5037168;28;20564;-81
2023/09/02 12:49:47;;;;;;;2.15;1.70;;;25.90;53.20;;;;;;5038102;28;20204;-81
2023/09/02 12:52:17;;;;;;;1.85;1.75;;;25.90;53.20;;;;;;5038738;28;20218;-81